sensor_id;sensor_type;location;lat;lon;timestamp;pressure;altitude;pressure_sealevel;temperature;humidity
26775;BME280;14362;51.902;7.626;2023-06-22T00:03:34;101233.19;;;21.67;100.00
26775;BME280;14362;51.902;7.626;2023-06-22T00:07:37;101233.59;;;21.66;100.00
26775;BME280;14362;51.902;7.626;2023-06-22T00:11:40;101229.03;;;21.58;100.00
26775;BME280;14362;51.902;7.626;2023-06-22T00:15:42;101223.09;;;21.40;100.00
26775;BME280;14362;51.902;7.626;2023-06-22T00:19:43;101216.69;;;21.47;100.00
26775;BME280;14362;51.902;7.626;2023-06-22T00:23:46;101220.34;;;21.47;100.00
26775;BME280;14362;51.902;7.626;2023-06-22T00:27:47;101202.88;;;21.45;100.00
26775;BME280;14362;51.902;7.626;2023-06-22T00:31:49;101194.78;;;21.44;100.00
26775;BME280;14362;51.902;7.626;2023-06-22T00:35:50;101211.38;;;21.42;100.00
26775;BME280;14362;51.902;7.626;2023-06-22T00:39:54;101212.72;;;21.22;100.00
26775;BME280;14362;51.902;7.626;2023-06-22T00:43:55;101219.06;;;21.12;100.00
26775;BME280;14362;51.902;7.626;2023-06-22T00:47:57;101215.41;;;21.11;100.00
26775;BME280;14362;51.902;7.626;2023-06-22T00:51:59;101215.72;;;21.06;100.00
26775;BME280;14362;51.902;7.626;2023-06-22T00:56:02;101208.03;;;21.07;100.00
26775;BME280;14362;51.902;7.626;2023-06-22T01:00:05;101210.16;;;21.13;100.00
26775;BME280;14362;51.902;7.626;2023-06-22T01:04:16;101202.69;;;21.02;100.00
26775;BME280;14362;51.902;7.626;2023-06-22T01:08:29;101196.56;;;20.96;100.00
26775;BME280;14362;51.902;7.626;2023-06-22T01:12:38;101202.19;;;20.93;100.00
26775;BME280;14362;51.902;7.626;2023-06-22T01:16:41;101204.56;;;20.91;100.00
26775;BME280;14362;51.902;7.626;2023-06-22T01:20:45;101204.50;;;20.87;100.00
26775;BME280;14362;51.902;7.626;2023-06-22T01:24:54;101206.06;;;20.81;100.00
26775;BME280;14362;51.902;7.626;2023-06-22T01:28:58;101208.88;;;20.81;100.00
26775;BME280;14362;51.902;7.626;2023-06-22T01:33:03;101200.28;;;20.78;100.00
26775;BME280;14362;51.902;7.626;2023-06-22T01:37:07;101198.63;;;20.77;100.00
26775;BME280;14362;51.902;7.626;2023-06-22T01:41:09;101206.28;;;20.73;100.00
26775;BME280;14362;51.902;7.626;2023-06-22T01:45:12;101195.31;;;20.71;100.00
26775;BME280;14362;51.902;7.626;2023-06-22T01:49:13;101194.88;;;20.69;100.00
26775;BME280;14362;51.902;7.626;2023-06-22T01:53:15;101195.22;;;20.64;100.00
26775;BME280;14362;51.902;7.626;2023-06-22T01:57:16;101191.44;;;20.57;100.00
26775;BME280;14362;51.902;7.626;2023-06-22T02:01:24;101184.03;;;20.49;100.00
26775;BME280;14362;51.902;7.626;2023-06-22T02:05:33;101191.28;;;20.47;100.00
26775;BME280;14362;51.902;7.626;2023-06-22T02:09:37;101191.16;;;20.40;100.00
26775;BME280;14362;51.902;7.626;2023-06-22T02:13:40;101200.06;;;20.38;100.00
26775;BME280;14362;51.902;7.626;2023-06-22T02:17:44;101198.81;;;20.39;100.00
26775;BME280;14362;51.902;7.626;2023-06-22T02:21:46;101193.56;;;20.38;100.00
26775;BME280;14362;51.902;7.626;2023-06-22T02:25:47;101199.22;;;20.38;100.00
26775;BME280;14362;51.902;7.626;2023-06-22T02:29:49;101206.47;;;20.35;100.00
26775;BME280;14362;51.902;7.626;2023-06-22T02:33:52;101204.34;;;20.29;100.00
26775;BME280;14362;51.902;7.626;2023-06-22T02:37:53;101198.69;;;20.29;100.00
26775;BME280;14362;51.902;7.626;2023-06-22T02:41:54;101189.75;;;20.27;100.00
26775;BME280;14362;51.902;7.626;2023-06-22T02:45:56;101194.97;;;20.25;100.00
26775;BME280;14362;51.902;7.626;2023-06-22T02:49:59;101197.28;;;20.19;100.00
26775;BME280;14362;51.902;7.626;2023-06-22T02:54:00;101190.03;;;20.22;100.00
26775;BME280;14362;51.902;7.626;2023-06-22T02:58:02;101190.41;;;20.20;100.00
26775;BME280;14362;51.902;7.626;2023-06-22T03:02:05;101196.84;;;20.17;100.00
26775;BME280;14362;51.902;7.626;2023-06-22T03:06:07;101190.66;;;20.12;100.00
26775;BME280;14362;51.902;7.626;2023-06-22T03:10:14;101193.44;;;20.08;100.00
26775;BME280;14362;51.902;7.626;2023-06-22T03:14:16;101186.44;;;20.02;100.00
26775;BME280;14362;51.902;7.626;2023-06-22T03:18:17;101182.38;;;20.00;100.00
26775;BME280;14362;51.902;7.626;2023-06-22T03:22:20;101177.41;;;19.97;100.00
26775;BME280;14362;51.902;7.626;2023-06-22T03:26:21;101177.81;;;19.95;100.00
26775;BME280;14362;51.902;7.626;2023-06-22T03:30:26;101176.53;;;19.93;100.00
26775;BME280;14362;51.902;7.626;2023-06-22T03:34:28;101183.84;;;19.94;100.00
26775;BME280;14362;51.902;7.626;2023-06-22T03:38:35;101175.72;;;19.92;100.00
26775;BME280;14362;51.902;7.626;2023-06-22T03:42:37;101177.72;;;19.92;100.00
26775;BME280;14362;51.902;7.626;2023-06-22T03:46:38;101182.13;;;19.89;100.00
26775;BME280;14362;51.902;7.626;2023-06-22T03:50:39;101187.03;;;19.92;100.00
26775;BME280;14362;51.902;7.626;2023-06-22T03:54:42;101193.09;;;19.91;100.00
26775;BME280;14362;51.902;7.626;2023-06-22T03:58:43;101183.72;;;19.87;100.00
26775;BME280;14362;51.902;7.626;2023-06-22T04:02:45;101183.78;;;19.90;100.00
26775;BME280;14362;51.902;7.626;2023-06-22T04:06:46;101186.91;;;19.85;100.00
26775;BME280;14362;51.902;7.626;2023-06-22T04:10:49;101169.31;;;19.95;100.00
26775;BME280;14362;51.902;7.626;2023-06-22T04:14:50;101164.94;;;19.98;100.00
26775;BME280;14362;51.902;7.626;2023-06-22T04:18:52;101160.97;;;20.02;100.00
26775;BME280;14362;51.902;7.626;2023-06-22T04:22:53;101172.47;;;20.13;100.00
26775;BME280;14362;51.902;7.626;2023-06-22T04:26:56;101164.34;;;20.08;100.00
26775;BME280;14362;51.902;7.626;2023-06-22T04:30:58;101155.50;;;20.13;100.00
26775;BME280;14362;51.902;7.626;2023-06-22T04:35:02;101165.19;;;20.12;100.00
26775;BME280;14362;51.902;7.626;2023-06-22T04:39:05;101170.94;;;20.15;100.00
26775;BME280;14362;51.902;7.626;2023-06-22T04:43:10;101163.72;;;20.44;100.00
26775;BME280;14362;51.902;7.626;2023-06-22T04:47:12;101152.50;;;20.25;100.00
26775;BME280;14362;51.902;7.626;2023-06-22T04:51:13;101154.19;;;20.29;100.00
26775;BME280;14362;51.902;7.626;2023-06-22T04:55:15;101145.41;;;20.38;100.00
26775;BME280;14362;51.902;7.626;2023-06-22T04:59:19;101153.16;;;20.41;100.00
26775;BME280;14362;51.902;7.626;2023-06-22T05:03:21;101149.84;;;20.61;100.00
26775;BME280;14362;51.902;7.626;2023-06-22T05:07:22;101146.69;;;20.66;100.00
26775;BME280;14362;51.902;7.626;2023-06-22T05:11:26;101148.63;;;20.84;100.00
26775;BME280;14362;51.902;7.626;2023-06-22T05:15:28;101145.88;;;20.91;100.00
26775;BME280;14362;51.902;7.626;2023-06-22T05:19:33;101146.59;;;20.85;100.00
26775;BME280;14362;51.902;7.626;2023-06-22T05:23:34;101135.97;;;21.08;100.00
26775;BME280;14362;51.902;7.626;2023-06-22T05:27:36;101142.34;;;21.31;100.00
26775;BME280;14362;51.902;7.626;2023-06-22T05:31:40;101143.63;;;21.37;100.00
26775;BME280;14362;51.902;7.626;2023-06-22T05:35:42;101141.81;;;21.55;100.00
26775;BME280;14362;51.902;7.626;2023-06-22T05:39:43;101152.88;;;21.99;100.00
26775;BME280;14362;51.902;7.626;2023-06-22T05:43:45;101153.84;;;22.17;100.00
26775;BME280;14362;51.902;7.626;2023-06-22T05:47:47;101152.53;;;22.08;100.00
26775;BME280;14362;51.902;7.626;2023-06-22T05:51:49;101154.31;;;21.83;100.00
26775;BME280;14362;51.902;7.626;2023-06-22T05:55:50;101149.59;;;21.97;100.00
26775;BME280;14362;51.902;7.626;2023-06-22T05:59:52;101150.59;;;21.75;100.00
26775;BME280;14362;51.902;7.626;2023-06-22T06:03:55;101157.97;;;21.83;100.00
26775;BME280;14362;51.902;7.626;2023-06-22T06:07:56;101158.03;;;21.90;100.00
26775;BME280;14362;51.902;7.626;2023-06-22T06:11:58;101156.97;;;21.66;100.00
26775;BME280;14362;51.902;7.626;2023-06-22T06:15:59;101159.41;;;21.67;100.00
26775;BME280;14362;51.902;7.626;2023-06-22T06:20:03;101168.69;;;21.64;100.00
26775;BME280;14362;51.902;7.626;2023-06-22T06:24:05;101157.31;;;21.61;100.00
26775;BME280;14362;51.902;7.626;2023-06-22T06:28:07;101158.13;;;21.61;100.00
26775;BME280;14362;51.902;7.626;2023-06-22T06:32:08;101167.63;;;21.75;100.00
26775;BME280;14362;51.902;7.626;2023-06-22T06:36:11;101171.50;;;21.61;100.00
26775;BME280;14362;51.902;7.626;2023-06-22T06:40:14;101191.38;;;21.61;100.00
26775;BME280;14362;51.902;7.626;2023-06-22T06:44:15;101178.03;;;21.65;100.00
26775;BME280;14362;51.902;7.626;2023-06-22T06:48:17;101183.44;;;21.76;100.00
26775;BME280;14362;51.902;7.626;2023-06-22T06:52:20;101177.34;;;21.74;100.00
26775;BME280;14362;51.902;7.626;2023-06-22T06:56:21;101171.66;;;21.74;100.00
26775;BME280;14362;51.902;7.626;2023-06-22T07:00:23;101172.19;;;21.83;100.00
26775;BME280;14362;51.902;7.626;2023-06-22T07:04:25;101174.28;;;21.93;100.00
26775;BME280;14362;51.902;7.626;2023-06-22T07:08:27;101164.63;;;21.98;100.00
26775;BME280;14362;51.902;7.626;2023-06-22T07:12:29;101166.28;;;22.02;100.00
26775;BME280;14362;51.902;7.626;2023-06-22T07:16:31;101169.16;;;22.06;100.00
26775;BME280;14362;51.902;7.626;2023-06-22T07:20:33;101165.50;;;22.05;100.00
26775;BME280;14362;51.902;7.626;2023-06-22T07:24:36;101151.38;;;22.12;100.00
26775;BME280;14362;51.902;7.626;2023-06-22T07:28:37;101146.84;;;22.04;100.00
26775;BME280;14362;51.902;7.626;2023-06-22T07:32:40;101138.75;;;22.06;100.00
26775;BME280;14362;51.902;7.626;2023-06-22T07:36:42;101138.84;;;22.17;100.00
26775;BME280;14362;51.902;7.626;2023-06-22T07:40:45;101142.00;;;22.08;100.00
26775;BME280;14362;51.902;7.626;2023-06-22T07:44:47;101144.03;;;22.08;100.00
26775;BME280;14362;51.902;7.626;2023-06-22T07:48:48;101140.41;;;22.11;100.00
26775;BME280;14362;51.902;7.626;2023-06-22T07:52:49;101141.22;;;22.11;100.00
26775;BME280;14362;51.902;7.626;2023-06-22T07:56:54;101140.06;;;22.16;100.00
26775;BME280;14362;51.902;7.626;2023-06-22T08:00:55;101137.63;;;22.18;100.00
26775;BME280;14362;51.902;7.626;2023-06-22T08:04:56;101131.22;;;22.24;100.00
26775;BME280;14362;51.902;7.626;2023-06-22T08:08:58;101126.34;;;22.28;100.00
26775;BME280;14362;51.902;7.626;2023-06-22T08:13:01;101120.28;;;22.26;100.00
26775;BME280;14362;51.902;7.626;2023-06-22T08:17:02;101118.66;;;22.29;100.00
26775;BME280;14362;51.902;7.626;2023-06-22T08:21:04;101124.81;;;22.34;100.00
26775;BME280;14362;51.902;7.626;2023-06-22T08:25:06;101118.78;;;22.43;100.00
26775;BME280;14362;51.902;7.626;2023-06-22T08:29:09;101113.53;;;22.45;100.00
26775;BME280;14362;51.902;7.626;2023-06-22T08:33:11;101114.81;;;22.51;100.00
26775;BME280;14362;51.902;7.626;2023-06-22T08:37:13;101107.50;;;22.53;100.00
26775;BME280;14362;51.902;7.626;2023-06-22T08:41:14;101097.84;;;22.68;100.00
26775;BME280;14362;51.902;7.626;2023-06-22T08:45:17;101075.59;;;22.77;100.00
26775;BME280;14362;51.902;7.626;2023-06-22T08:49:18;101066.69;;;22.82;100.00
26775;BME280;14362;51.902;7.626;2023-06-22T08:53:20;101066.38;;;23.04;100.00
26775;BME280;14362;51.902;7.626;2023-06-22T08:57:21;101083.16;;;23.30;100.00
26775;BME280;14362;51.902;7.626;2023-06-22T09:01:24;101070.13;;;23.26;100.00
26775;BME280;14362;51.902;7.626;2023-06-22T09:05:25;101059.97;;;23.18;100.00
26775;BME280;14362;51.902;7.626;2023-06-22T09:09:27;101058.75;;;23.22;100.00
26775;BME280;14362;51.902;7.626;2023-06-22T09:13:30;101041.72;;;23.50;100.00
26775;BME280;14362;51.902;7.626;2023-06-22T09:17:33;101045.00;;;23.49;100.00
26775;BME280;14362;51.902;7.626;2023-06-22T09:21:35;101030.38;;;23.57;100.00
26775;BME280;14362;51.902;7.626;2023-06-22T09:25:37;101027.53;;;23.64;100.00
26775;BME280;14362;51.902;7.626;2023-06-22T09:29:38;101015.34;;;23.71;100.00
26775;BME280;14362;51.902;7.626;2023-06-22T09:33:41;101011.28;;;23.89;100.00
26775;BME280;14362;51.902;7.626;2023-06-22T09:37:43;101017.78;;;24.07;100.00
26775;BME280;14362;51.902;7.626;2023-06-22T09:41:45;101020.22;;;24.12;100.00
26775;BME280;14362;51.902;7.626;2023-06-22T09:45:46;101020.63;;;24.17;100.00
26775;BME280;14362;51.902;7.626;2023-06-22T09:49:49;101016.97;;;24.24;100.00
26775;BME280;14362;51.902;7.626;2023-06-22T09:53:50;101034.88;;;24.52;100.00
26775;BME280;14362;51.902;7.626;2023-06-22T09:57:52;101038.06;;;24.65;100.00
26775;BME280;14362;51.902;7.626;2023-06-22T10:01:54;101034.81;;;24.59;100.00
26775;BME280;14362;51.902;7.626;2023-06-22T10:05:57;101034.06;;;24.48;100.00
26775;BME280;14362;51.902;7.626;2023-06-22T10:09:59;101023.81;;;24.61;100.00
26775;BME280;14362;51.902;7.626;2023-06-22T10:14:00;101017.31;;;24.64;100.00
26775;BME280;14362;51.902;7.626;2023-06-22T10:18:04;101012.00;;;24.70;100.00
26775;BME280;14362;51.902;7.626;2023-06-22T10:22:07;101005.84;;;24.78;100.00
26775;BME280;14362;51.902;7.626;2023-06-22T10:26:08;101004.91;;;25.09;100.00
26775;BME280;14362;51.902;7.626;2023-06-22T10:30:11;101000.03;;;25.06;100.00
26775;BME280;14362;51.902;7.626;2023-06-22T10:34:13;100997.16;;;25.13;100.00
26775;BME280;14362;51.902;7.626;2023-06-22T10:38:15;100990.16;;;25.28;100.00
26775;BME280;14362;51.902;7.626;2023-06-22T10:42:17;100988.81;;;25.43;100.00
26775;BME280;14362;51.902;7.626;2023-06-22T10:46:18;100984.72;;;25.44;100.00
26775;BME280;14362;51.902;7.626;2023-06-22T10:50:20;100987.19;;;25.42;100.00
26775;BME280;14362;51.902;7.626;2023-06-22T10:54:25;100969.75;;;25.29;100.00
26775;BME280;14362;51.902;7.626;2023-06-22T10:58:26;100970.78;;;25.56;100.00
26775;BME280;14362;51.902;7.626;2023-06-22T11:02:28;100968.44;;;25.41;100.00
26775;BME280;14362;51.902;7.626;2023-06-22T11:06:29;100961.00;;;25.54;100.00
26775;BME280;14362;51.902;7.626;2023-06-22T11:10:32;100957.75;;;25.52;100.00
26775;BME280;14362;51.902;7.626;2023-06-22T11:14:33;100955.28;;;25.54;100.00
26775;BME280;14362;51.902;7.626;2023-06-22T11:18:35;100942.25;;;25.53;100.00
26775;BME280;14362;51.902;7.626;2023-06-22T11:22:37;100943.75;;;25.68;100.00
26775;BME280;14362;51.902;7.626;2023-06-22T11:26:40;100939.09;;;25.88;100.00
26775;BME280;14362;51.902;7.626;2023-06-22T11:30:42;100935.78;;;25.93;100.00
26775;BME280;14362;51.902;7.626;2023-06-22T11:34:43;100928.44;;;25.92;100.00
26775;BME280;14362;51.902;7.626;2023-06-22T11:38:44;100924.06;;;25.84;100.00
26775;BME280;14362;51.902;7.626;2023-06-22T11:42:47;100933.47;;;25.81;100.00
26775;BME280;14362;51.902;7.626;2023-06-22T11:46:49;100939.03;;;25.95;100.00
26775;BME280;14362;51.902;7.626;2023-06-22T11:50:50;100946.03;;;25.87;100.00
26775;BME280;14362;51.902;7.626;2023-06-22T11:54:51;100963.16;;;25.90;100.00
26775;BME280;14362;51.902;7.626;2023-06-22T11:58:54;100962.00;;;25.84;100.00
26775;BME280;14362;51.902;7.626;2023-06-22T12:02:55;100948.88;;;25.90;100.00
26775;BME280;14362;51.902;7.626;2023-06-22T12:06:57;100955.19;;;25.64;100.00
26775;BME280;14362;51.902;7.626;2023-06-22T12:10:58;100943.88;;;25.54;100.00
26775;BME280;14362;51.902;7.626;2023-06-22T12:15:01;100945.59;;;25.41;100.00
26775;BME280;14362;51.902;7.626;2023-06-22T12:19:04;100938.63;;;25.45;100.00
26775;BME280;14362;51.902;7.626;2023-06-22T12:23:05;100950.59;;;25.26;100.00
26775;BME280;14362;51.902;7.626;2023-06-22T12:27:06;100951.38;;;25.30;100.00
26775;BME280;14362;51.902;7.626;2023-06-22T12:31:09;100938.47;;;25.08;100.00
26775;BME280;14362;51.902;7.626;2023-06-22T12:35:11;100942.09;;;25.16;100.00
26775;BME280;14362;51.902;7.626;2023-06-22T12:39:14;100950.72;;;25.02;100.00
26775;BME280;14362;51.902;7.626;2023-06-22T12:43:15;100962.16;;;24.98;100.00
26775;BME280;14362;51.902;7.626;2023-06-22T12:47:18;100955.41;;;24.68;100.00
26775;BME280;14362;51.902;7.626;2023-06-22T12:51:21;100944.88;;;24.44;100.00
26775;BME280;14362;51.902;7.626;2023-06-22T12:55:23;100942.91;;;24.20;100.00
26775;BME280;14362;51.902;7.626;2023-06-22T12:59:24;100921.00;;;23.96;100.00
26775;BME280;14362;51.902;7.626;2023-06-22T13:03:27;100916.53;;;23.78;100.00
26775;BME280;14362;51.902;7.626;2023-06-22T13:07:28;100913.28;;;23.59;100.00
26775;BME280;14362;51.902;7.626;2023-06-22T13:11:30;100916.94;;;23.49;100.00
26775;BME280;14362;51.902;7.626;2023-06-22T13:15:31;100912.88;;;23.36;100.00
26775;BME280;14362;51.902;7.626;2023-06-22T13:19:34;100897.41;;;23.23;100.00
26775;BME280;14362;51.902;7.626;2023-06-22T13:23:35;100878.75;;;23.25;100.00
26775;BME280;14362;51.902;7.626;2023-06-22T13:27:37;100858.81;;;23.08;100.00
26775;BME280;14362;51.902;7.626;2023-06-22T13:31:38;100845.38;;;22.98;100.00
26775;BME280;14362;51.902;7.626;2023-06-22T13:35:41;100822.63;;;22.98;100.00
26775;BME280;14362;51.902;7.626;2023-06-22T13:39:43;100805.16;;;22.96;100.00
26775;BME280;14362;51.902;7.626;2023-06-22T13:43:44;100776.72;;;22.85;100.00
26775;BME280;14362;51.902;7.626;2023-06-22T13:47:45;100754.41;;;22.91;100.00
26775;BME280;14362;51.902;7.626;2023-06-22T13:51:48;100747.06;;;22.69;100.00
26775;BME280;14362;51.902;7.626;2023-06-22T13:55:50;100761.28;;;22.59;100.00
26775;BME280;14362;51.902;7.626;2023-06-22T13:59:52;100759.69;;;22.61;100.00
26775;BME280;14362;51.902;7.626;2023-06-22T14:03:54;100762.88;;;22.49;100.00
26775;BME280;14362;51.902;7.626;2023-06-22T14:07:56;100755.59;;;22.41;100.00
26775;BME280;14362;51.902;7.626;2023-06-22T14:12:02;100725.97;;;22.42;100.00
26775;BME280;14362;51.902;7.626;2023-06-22T14:16:04;100717.44;;;22.46;100.00
26775;BME280;14362;51.902;7.626;2023-06-22T14:20:07;100717.84;;;22.44;100.00
26775;BME280;14362;51.902;7.626;2023-06-22T14:24:10;100726.34;;;22.41;100.00
26775;BME280;14362;51.902;7.626;2023-06-22T14:28:11;100745.44;;;22.40;100.00
26775;BME280;14362;51.902;7.626;2023-06-22T14:32:13;100726.72;;;22.29;100.00
26775;BME280;14362;51.902;7.626;2023-06-22T14:36:14;100724.34;;;22.41;100.00
26775;BME280;14362;51.902;7.626;2023-06-22T14:40:17;100715.41;;;22.50;100.00
26775;BME280;14362;51.902;7.626;2023-06-22T14:44:18;100690.25;;;22.48;100.00
26775;BME280;14362;51.902;7.626;2023-06-22T14:48:20;100675.63;;;22.57;100.00
26775;BME280;14362;51.902;7.626;2023-06-22T14:52:21;100687.41;;;22.66;100.00
26775;BME280;14362;51.902;7.626;2023-06-22T14:56:24;100699.19;;;22.68;100.00
26775;BME280;14362;51.902;7.626;2023-06-22T15:00:26;100704.84;;;22.61;100.00
26775;BME280;14362;51.902;7.626;2023-06-22T15:04:27;100713.41;;;22.64;100.00
26775;BME280;14362;51.902;7.626;2023-06-22T15:08:31;100715.00;;;22.65;100.00
26775;BME280;14362;51.902;7.626;2023-06-22T15:12:34;100725.97;;;22.67;100.00
26775;BME280;14362;51.902;7.626;2023-06-22T15:16:36;100743.81;;;22.46;100.00
26775;BME280;14362;51.902;7.626;2023-06-22T15:20:37;100741.78;;;22.36;100.00
26775;BME280;14362;51.902;7.626;2023-06-22T15:24:38;100728.78;;;22.39;100.00
26775;BME280;14362;51.902;7.626;2023-06-22T15:28:41;100704.81;;;22.33;100.00
26775;BME280;14362;51.902;7.626;2023-06-22T15:32:43;100692.22;;;22.30;100.00
26775;BME280;14362;51.902;7.626;2023-06-22T15:36:45;100690.59;;;22.22;100.00
26775;BME280;14362;51.902;7.626;2023-06-22T15:40:47;100671.13;;;22.28;100.00
26775;BME280;14362;51.902;7.626;2023-06-22T15:44:49;100665.47;;;22.24;100.00
26775;BME280;14362;51.902;7.626;2023-06-22T15:48:51;100638.25;;;22.30;100.00
26775;BME280;14362;51.902;7.626;2023-06-22T15:52:52;100616.75;;;22.29;100.00
26775;BME280;14362;51.902;7.626;2023-06-22T15:56:54;100585.94;;;22.21;100.00
26775;BME280;14362;51.902;7.626;2023-06-22T16:00:56;100584.31;;;22.20;100.00
26775;BME280;14362;51.902;7.626;2023-06-22T16:04:58;100578.66;;;22.41;100.00
26775;BME280;14362;51.902;7.626;2023-06-22T16:08:59;100596.91;;;22.22;100.00
26775;BME280;14362;51.902;7.626;2023-06-22T16:13:00;100596.91;;;21.98;100.00
26775;BME280;14362;51.902;7.626;2023-06-22T16:17:04;100590.38;;;22.01;100.00
26775;BME280;14362;51.902;7.626;2023-06-22T16:21:06;100587.16;;;22.06;100.00
26775;BME280;14362;51.902;7.626;2023-06-22T16:25:07;100595.66;;;21.95;100.00
26775;BME280;14362;51.902;7.626;2023-06-22T16:29:10;100604.97;;;21.92;100.00
26775;BME280;14362;51.902;7.626;2023-06-22T16:33:12;100623.25;;;21.95;100.00
26775;BME280;14362;51.902;7.626;2023-06-22T16:37:14;100623.63;;;21.86;100.00
26775;BME280;14362;51.902;7.626;2023-06-22T16:41:15;100630.91;;;21.77;100.00
26775;BME280;14362;51.902;7.626;2023-06-22T16:45:17;100640.97;;;21.64;100.00
26775;BME280;14362;51.902;7.626;2023-06-22T16:49:20;100679.50;;;21.58;100.00
26775;BME280;14362;51.902;7.626;2023-06-22T16:53:21;100715.94;;;21.60;100.00
26775;BME280;14362;51.902;7.626;2023-06-22T16:57:24;100722.38;;;21.57;100.00
26775;BME280;14362;51.902;7.626;2023-06-22T17:01:26;100700.47;;;21.50;100.00
26775;BME280;14362;51.902;7.626;2023-06-22T17:05:30;100671.31;;;21.50;100.00
26775;BME280;14362;51.902;7.626;2023-06-22T17:09:32;100637.63;;;21.34;100.00
26775;BME280;14362;51.902;7.626;2023-06-22T17:13:35;100612.47;;;21.29;100.00
26775;BME280;14362;51.902;7.626;2023-06-22T17:17:38;100594.63;;;21.25;100.00
26775;BME280;14362;51.902;7.626;2023-06-22T17:21:42;100580.91;;;21.34;100.00
26775;BME280;14362;51.902;7.626;2023-06-22T17:25:44;100575.56;;;21.15;100.00
26775;BME280;14362;51.902;7.626;2023-06-22T17:29:47;100586.06;;;21.11;100.00
26775;BME280;14362;51.902;7.626;2023-06-22T17:33:48;100567.44;;;21.07;100.00
26775;BME280;14362;51.902;7.626;2023-06-22T17:37:53;100550.38;;;20.96;100.00
26775;BME280;14362;51.902;7.626;2023-06-22T17:41:55;100566.19;;;21.01;100.00
26775;BME280;14362;51.902;7.626;2023-06-22T17:45:58;100567.00;;;21.01;100.00
26775;BME280;14362;51.902;7.626;2023-06-22T17:50:04;100570.13;;;20.79;100.00
26775;BME280;14362;51.902;7.626;2023-06-22T17:54:07;100561.53;;;20.68;100.00
26775;BME280;14362;51.902;7.626;2023-06-22T17:58:08;100548.28;;;20.83;100.00
26775;BME280;14362;51.902;7.626;2023-06-22T18:02:11;100555.13;;;20.75;100.00
26775;BME280;14362;51.902;7.626;2023-06-22T18:06:13;100543.72;;;20.68;100.00
26775;BME280;14362;51.902;7.626;2023-06-22T18:10:17;100527.09;;;20.63;100.00
26775;BME280;14362;51.902;7.626;2023-06-22T18:14:19;100507.72;;;20.68;100.00
26775;BME280;14362;51.902;7.626;2023-06-22T18:18:21;100515.41;;;20.68;100.00
26775;BME280;14362;51.902;7.626;2023-06-22T18:22:25;100516.53;;;20.53;100.00
26775;BME280;14362;51.902;7.626;2023-06-22T18:26:27;100524.63;;;20.55;100.00
26775;BME280;14362;51.902;7.626;2023-06-22T18:30:29;100531.94;;;20.59;100.00
26775;BME280;14362;51.902;7.626;2023-06-22T18:34:31;100528.69;;;20.57;100.00
26775;BME280;14362;51.902;7.626;2023-06-22T18:38:32;100525.84;;;20.50;100.00
26775;BME280;14362;51.902;7.626;2023-06-22T18:42:43;100512.94;;;20.56;100.00
26775;BME280;14362;51.902;7.626;2023-06-22T18:46:49;100523.84;;;20.61;100.00
26775;BME280;14362;51.902;7.626;2023-06-22T18:50:51;100511.66;;;20.50;100.00
26775;BME280;14362;51.902;7.626;2023-06-22T18:54:53;100505.16;;;20.46;100.00
26775;BME280;14362;51.902;7.626;2023-06-22T18:58:56;100508.00;;;20.46;100.00
26775;BME280;14362;51.902;7.626;2023-06-22T19:02:58;100508.97;;;20.71;100.00
26775;BME280;14362;51.902;7.626;2023-06-22T19:06:59;100523.06;;;20.61;100.00
26775;BME280;14362;51.902;7.626;2023-06-22T19:11:11;100511.25;;;20.52;100.00
26775;BME280;14362;51.902;7.626;2023-06-22T19:15:15;100511.66;;;20.50;100.00
26775;BME280;14362;51.902;7.626;2023-06-22T19:19:16;100512.09;;;20.52;100.00
26775;BME280;14362;51.902;7.626;2023-06-22T19:23:28;100504.03;;;20.61;100.00
26775;BME280;14362;51.902;7.626;2023-06-22T19:27:30;100502.41;;;20.57;100.00
26775;BME280;14362;51.902;7.626;2023-06-22T19:31:33;100495.94;;;20.63;100.00
26775;BME280;14362;51.902;7.626;2023-06-22T19:35:34;100493.53;;;20.68;100.00
26775;BME280;14362;51.902;7.626;2023-06-22T19:39:36;100490.69;;;20.65;100.00
26775;BME280;14362;51.902;7.626;2023-06-22T19:43:37;100498.78;;;20.56;100.00
26775;BME280;14362;51.902;7.626;2023-06-22T19:47:42;100509.34;;;20.69;100.00
26775;BME280;14362;51.902;7.626;2023-06-22T19:51:45;100499.63;;;20.63;100.00
26775;BME280;14362;51.902;7.626;2023-06-22T19:55:47;100497.22;;;20.69;100.00
26775;BME280;14362;51.902;7.626;2023-06-22T19:59:49;100485.88;;;20.69;100.00
26775;BME280;14362;51.902;7.626;2023-06-22T20:03:55;100481.00;;;20.63;100.00
26775;BME280;14362;51.902;7.626;2023-06-22T20:08:02;100477.34;;;20.62;100.00
26775;BME280;14362;51.902;7.626;2023-06-22T20:12:04;100469.66;;;20.66;100.00
26775;BME280;14362;51.902;7.626;2023-06-22T20:16:08;100470.09;;;20.71;100.00
26775;BME280;14362;51.902;7.626;2023-06-22T20:20:20;100461.97;;;20.63;100.00
26775;BME280;14362;51.902;7.626;2023-06-22T20:24:21;100446.59;;;20.64;100.00
26775;BME280;14362;51.902;7.626;2023-06-22T20:28:24;100450.63;;;20.56;100.00
26775;BME280;14362;51.902;7.626;2023-06-22T20:32:26;100446.53;;;20.50;100.00
26775;BME280;14362;51.902;7.626;2023-06-22T20:36:29;100448.53;;;20.46;100.00
26775;BME280;14362;51.902;7.626;2023-06-22T20:40:32;100446.50;;;20.43;100.00
26775;BME280;14362;51.902;7.626;2023-06-22T20:44:34;100442.50;;;20.51;100.00
26775;BME280;14362;51.902;7.626;2023-06-22T20:48:35;100450.53;;;20.42;100.00
26775;BME280;14362;51.902;7.626;2023-06-22T20:52:38;100455.41;;;20.49;100.00